sensor_id;sensor_type;location;lat;lon;timestamp;pressure;altitude;pressure_sealevel;temperature;humidity
78309;BME280;75657;42.022;21.356;2024-01-30T00:02:17;100666.78;;;3.92;62.11
78309;BME280;75657;42.022;21.356;2024-01-30T00:04:42;100661.13;;;3.95;61.72
78309;BME280;75657;42.022;21.356;2024-01-30T00:07:08;100675.09;;;3.95;61.76
78309;BME280;75657;42.022;21.356;2024-01-30T00:09:33;100669.81;;;3.95;61.75
78309;BME280;75657;42.022;21.356;2024-01-30T00:11:59;100672.47;;;3.95;62.14
78309;BME280;75657;42.022;21.356;2024-01-30T00:14:25;100675.91;;;3.96;61.68
78309;BME280;75657;42.022;21.356;2024-01-30T00:16:51;100684.00;;;3.94;61.51
78309;BME280;75657;42.022;21.356;2024-01-30T00:19:16;100677.75;;;3.89;61.24
78309;BME280;75657;42.022;21.356;2024-01-30T00:21:42;100684.66;;;3.83;61.98
78309;BME280;75657;42.022;21.356;2024-01-30T00:24:07;100679.38;;;3.83;62.10
78309;BME280;75657;42.022;21.356;2024-01-30T00:26:33;100680.56;;;3.81;61.90
78309;BME280;75657;42.022;21.356;2024-01-30T00:28:59;100680.56;;;3.74;62.23
78309;BME280;75657;42.022;21.356;2024-01-30T00:31:24;100675.72;;;3.71;62.72
78309;BME280;75657;42.022;21.356;2024-01-30T00:33:50;100673.50;;;3.68;62.51
78309;BME280;75657;42.022;21.356;2024-01-30T00:36:15;100671.88;;;3.67;62.34
78309;BME280;75657;42.022;21.356;2024-01-30T00:38:41;100674.69;;;3.65;62.31
78309;BME280;75657;42.022;21.356;2024-01-30T00:41:08;100674.28;;;3.62;62.37
78309;BME280;75657;42.022;21.356;2024-01-30T00:43:33;100674.72;;;3.58;62.91
78309;BME280;75657;42.022;21.356;2024-01-30T00:45:59;100678.97;;;3.53;62.95
78309;BME280;75657;42.022;21.356;2024-01-30T00:48:25;100683.41;;;3.52;63.02
78309;BME280;75657;42.022;21.356;2024-01-30T00:50:50;100677.94;;;3.40;63.32
78309;BME280;75657;42.022;21.356;2024-01-30T00:53:15;100686.66;;;3.41;63.48
78309;BME280;75657;42.022;21.356;2024-01-30T00:55:41;100682.59;;;3.32;64.05
78309;BME280;75657;42.022;21.356;2024-01-30T00:58:06;100682.59;;;3.25;63.69
78309;BME280;75657;42.022;21.356;2024-01-30T01:00:32;100681.16;;;3.16;63.96
78309;BME280;75657;42.022;21.356;2024-01-30T01:02:58;100685.22;;;3.18;63.40
78309;BME280;75657;42.022;21.356;2024-01-30T01:05:24;100680.75;;;3.19;63.51
78309;BME280;75657;42.022;21.356;2024-01-30T01:07:50;100683.97;;;3.14;63.84
78309;BME280;75657;42.022;21.356;2024-01-30T01:10:18;100681.97;;;3.16;63.91
78309;BME280;75657;42.022;21.356;2024-01-30T01:12:44;100684.63;;;3.16;63.71
78309;BME280;75657;42.022;21.356;2024-01-30T01:15:11;100693.13;;;3.18;63.66
78309;BME280;75657;42.022;21.356;2024-01-30T01:17:39;100682.59;;;3.18;63.97
78309;BME280;75657;42.022;21.356;2024-01-30T01:20:06;100681.16;;;3.16;63.51
78309;BME280;75657;42.022;21.356;2024-01-30T01:22:32;100678.72;;;3.14;64.33
78309;BME280;75657;42.022;21.356;2024-01-30T01:24:58;100681.13;;;3.09;64.17
78309;BME280;75657;42.022;21.356;2024-01-30T01:27:24;100673.22;;;3.09;64.00
78309;BME280;75657;42.022;21.356;2024-01-30T01:29:50;100671.41;;;3.03;64.47
78309;BME280;75657;42.022;21.356;2024-01-30T01:32:15;100673.25;;;3.02;63.99
78309;BME280;75657;42.022;21.356;2024-01-30T01:34:41;100666.53;;;3.00;63.77
78309;BME280;75657;42.022;21.356;2024-01-30T01:37:06;100670.19;;;2.99;64.26
78309;BME280;75657;42.022;21.356;2024-01-30T01:39:32;100668.56;;;2.98;63.93
78309;BME280;75657;42.022;21.356;2024-01-30T01:41:58;100664.94;;;2.99;64.71
78309;BME280;75657;42.022;21.356;2024-01-30T01:44:23;100666.94;;;2.97;64.05
78309;BME280;75657;42.022;21.356;2024-01-30T01:46:49;100667.97;;;2.96;64.11
78309;BME280;75657;42.022;21.356;2024-01-30T01:49:15;100673.22;;;2.96;64.15
78309;BME280;75657;42.022;21.356;2024-01-30T01:51:41;100677.03;;;2.93;63.52
78309;BME280;75657;42.022;21.356;2024-01-30T01:54:07;100666.72;;;2.92;64.18
78309;BME280;75657;42.022;21.356;2024-01-30T01:56:34;100667.53;;;2.92;63.92
78309;BME280;75657;42.022;21.356;2024-01-30T01:59:05;100661.88;;;2.89;63.46
78309;BME280;75657;42.022;21.356;2024-01-30T02:01:32;100669.16;;;2.87;64.02
78309;BME280;75657;42.022;21.356;2024-01-30T02:03:59;100663.06;;;2.86;63.64
78309;BME280;75657;42.022;21.356;2024-01-30T02:06:24;100672.19;;;2.83;63.69
78309;BME280;75657;42.022;21.356;2024-01-30T02:08:50;100666.31;;;2.81;64.03
78309;BME280;75657;42.022;21.356;2024-01-30T02:11:16;100669.75;;;2.82;63.67
78309;BME280;75657;42.022;21.356;2024-01-30T02:13:42;100665.47;;;2.81;63.40
78309;BME280;75657;42.022;21.356;2024-01-30T02:16:07;100669.53;;;2.77;63.48
78309;BME280;75657;42.022;21.356;2024-01-30T02:18:33;100676.19;;;2.73;63.20
78309;BME280;75657;42.022;21.356;2024-01-30T02:23:27;100669.22;;;2.58;64.13
78309;BME280;75657;42.022;21.356;2024-01-30T02:25:52;100669.84;;;2.54;64.21
78309;BME280;75657;42.022;21.356;2024-01-30T02:28:19;100674.88;;;2.49;64.64
78309;BME280;75657;42.022;21.356;2024-01-30T02:30:45;100671.00;;;2.44;64.55
78309;BME280;75657;42.022;21.356;2024-01-30T02:33:12;100681.31;;;2.46;64.58
78309;BME280;75657;42.022;21.356;2024-01-30T02:35:37;100677.47;;;2.42;64.49
78309;BME280;75657;42.022;21.356;2024-01-30T02:38:03;100673.63;;;2.38;64.54
78309;BME280;75657;42.022;21.356;2024-01-30T02:40:29;100678.03;;;2.37;64.71
78309;BME280;75657;42.022;21.356;2024-01-30T02:42:54;100682.69;;;2.35;64.48
78309;BME280;75657;42.022;21.356;2024-01-30T02:45:20;100681.03;;;2.28;64.83
78309;BME280;75657;42.022;21.356;2024-01-30T02:47:46;100673.13;;;2.21;63.95
78309;BME280;75657;42.022;21.356;2024-01-30T02:50:11;100684.63;;;2.20;64.95
78309;BME280;75657;42.022;21.356;2024-01-30T02:52:37;100678.75;;;2.18;64.77
78309;BME280;75657;42.022;21.356;2024-01-30T02:55:02;100679.97;;;2.15;65.23
78309;BME280;75657;42.022;21.356;2024-01-30T02:57:28;100687.41;;;2.12;65.48
78309;BME280;75657;42.022;21.356;2024-01-30T02:59:54;100683.78;;;2.13;65.41
78309;BME280;75657;42.022;21.356;2024-01-30T03:02:19;100676.06;;;2.11;65.48
78309;BME280;75657;42.022;21.356;2024-01-30T03:04:45;100672.66;;;2.11;65.23
78309;BME280;75657;42.022;21.356;2024-01-30T03:07:11;100668.38;;;2.10;65.32
78309;BME280;75657;42.022;21.356;2024-01-30T03:09:37;100677.84;;;2.04;65.50
78309;BME280;75657;42.022;21.356;2024-01-30T03:12:03;100672.19;;;2.00;64.94
78309;BME280;75657;42.022;21.356;2024-01-30T03:14:31;100671.38;;;2.00;64.93
78309;BME280;75657;42.022;21.356;2024-01-30T03:16:57;100682.88;;;1.99;65.05
78309;BME280;75657;42.022;21.356;2024-01-30T03:19:23;100671.38;;;2.00;65.39
78309;BME280;75657;42.022;21.356;2024-01-30T03:21:48;100672.75;;;1.96;65.41
78309;BME280;75657;42.022;21.356;2024-01-30T03:24:14;100674.38;;;1.97;65.58
78309;BME280;75657;42.022;21.356;2024-01-30T03:26:39;100670.72;;;1.91;65.49
78309;BME280;75657;42.022;21.356;2024-01-30T03:29:05;100675.72;;;1.86;66.16
78309;BME280;75657;42.022;21.356;2024-01-30T03:31:30;100679.09;;;1.80;66.49
78309;BME280;75657;42.022;21.356;2024-01-30T03:33:56;100679.09;;;1.80;66.32
78309;BME280;75657;42.022;21.356;2024-01-30T03:36:21;100674.03;;;1.78;66.25
78309;BME280;75657;42.022;21.356;2024-01-30T03:38:46;100669.81;;;1.77;66.42
78309;BME280;75657;42.022;21.356;2024-01-30T03:41:12;100670.59;;;1.78;66.26
78309;BME280;75657;42.022;21.356;2024-01-30T03:43:37;100679.88;;;1.74;66.53
78309;BME280;75657;42.022;21.356;2024-01-30T03:46:03;100675.81;;;1.71;66.58
78309;BME280;75657;42.022;21.356;2024-01-30T03:48:29;100676.03;;;1.69;66.64
78309;BME280;75657;42.022;21.356;2024-01-30T03:50:55;100683.44;;;1.66;66.58
78309;BME280;75657;42.022;21.356;2024-01-30T03:53:20;100682.63;;;1.65;66.58
78309;BME280;75657;42.022;21.356;2024-01-30T03:55:46;100677.56;;;1.64;66.92
78309;BME280;75657;42.022;21.356;2024-01-30T03:58:11;100678.19;;;1.66;66.61
78309;BME280;75657;42.022;21.356;2024-01-30T04:00:37;100680.81;;;1.66;66.79
78309;BME280;75657;42.022;21.356;2024-01-30T04:03:03;100682.63;;;1.65;66.99
78309;BME280;75657;42.022;21.356;2024-01-30T04:05:28;100676.38;;;1.66;66.52
78309;BME280;75657;42.022;21.356;2024-01-30T04:07:54;100680.00;;;1.65;66.58
78309;BME280;75657;42.022;21.356;2024-01-30T04:10:19;100686.66;;;1.61;66.61
78309;BME280;75657;42.022;21.356;2024-01-30T04:12:45;100682.06;;;1.48;66.75
78309;BME280;75657;42.022;21.356;2024-01-30T04:15:10;100690.53;;;1.44;66.78
78309;BME280;75657;42.022;21.356;2024-01-30T04:17:36;100691.72;;;1.41;66.97
78309;BME280;75657;42.022;21.356;2024-01-30T04:20:02;100694.34;;;1.41;67.32
78309;BME280;75657;42.022;21.356;2024-01-30T04:22:27;100694.53;;;1.40;67.06
78309;BME280;75657;42.022;21.356;2024-01-30T04:24:53;100695.53;;;1.39;67.31
78309;BME280;75657;42.022;21.356;2024-01-30T04:27:18;100696.34;;;1.39;67.10
78309;BME280;75657;42.022;21.356;2024-01-30T04:29:43;100693.09;;;1.37;67.25
78309;BME280;75657;42.022;21.356;2024-01-30T04:32:09;100693.84;;;1.31;67.52
78309;BME280;75657;42.022;21.356;2024-01-30T04:34:36;100703.28;;;1.25;67.27
78309;BME280;75657;42.022;21.356;2024-01-30T04:37:02;100695.75;;;1.22;67.23
78309;BME280;75657;42.022;21.356;2024-01-30T04:39:27;100700.03;;;1.23;67.24
78309;BME280;75657;42.022;21.356;2024-01-30T04:41:53;100695.16;;;1.20;67.35
78309;BME280;75657;42.022;21.356;2024-01-30T04:44:18;100704.22;;;1.18;67.05
78309;BME280;75657;42.022;21.356;2024-01-30T04:46:44;100704.56;;;1.15;67.05
78309;BME280;75657;42.022;21.356;2024-01-30T04:49:10;100706.63;;;0.98;67.76
78309;BME280;75657;42.022;21.356;2024-01-30T04:51:35;100710.00;;;0.77;67.37
78309;BME280;75657;42.022;21.356;2024-01-30T04:54:01;100707.28;;;0.70;67.35
78309;BME280;75657;42.022;21.356;2024-01-30T04:56:26;100705.88;;;0.67;67.67
78309;BME280;75657;42.022;21.356;2024-01-30T04:58:52;100706.41;;;0.63;67.78
78309;BME280;75657;42.022;21.356;2024-01-30T05:01:17;100714.44;;;0.61;67.97
78309;BME280;75657;42.022;21.356;2024-01-30T05:03:43;100712.13;;;0.51;68.18
78309;BME280;75657;42.022;21.356;2024-01-30T05:06:09;100719.72;;;0.46;68.62
78309;BME280;75657;42.022;21.356;2024-01-30T05:08:34;100725.03;;;0.38;68.84
78309;BME280;75657;42.022;21.356;2024-01-30T05:11:04;100722.41;;;0.38;69.14
78309;BME280;75657;42.022;21.356;2024-01-30T05:13:33;100722.59;;;0.36;69.26
78309;BME280;75657;42.022;21.356;2024-01-30T05:15:58;100726.84;;;0.37;69.02
78309;BME280;75657;42.022;21.356;2024-01-30T05:18:24;100725.38;;;0.35;68.81
78309;BME280;75657;42.022;21.356;2024-01-30T05:20:50;100727.75;;;0.30;68.78
78309;BME280;75657;42.022;21.356;2024-01-30T05:23:16;100733.00;;;0.30;68.93
78309;BME280;75657;42.022;21.356;2024-01-30T05:25:41;100734.50;;;0.24;69.05
78309;BME280;75657;42.022;21.356;2024-01-30T05:28:07;100729.56;;;0.14;69.15
78309;BME280;75657;42.022;21.356;2024-01-30T05:30:32;100724.31;;;0.14;68.96
78309;BME280;75657;42.022;21.356;2024-01-30T05:32:58;100727.09;;;0.13;69.02
78309;BME280;75657;42.022;21.356;2024-01-30T05:35:23;100731.53;;;0.12;68.84
78309;BME280;75657;42.022;21.356;2024-01-30T05:37:49;100734.97;;;0.13;68.47
78309;BME280;75657;42.022;21.356;2024-01-30T05:40:15;100732.69;;;0.10;68.74
78309;BME280;75657;42.022;21.356;2024-01-30T05:42:41;100728.72;;;-0.01;68.29
78309;BME280;75657;42.022;21.356;2024-01-30T05:45:06;100729.41;;;-0.07;67.97
78309;BME280;75657;42.022;21.356;2024-01-30T05:47:33;100730.75;;;-0.11;68.58
78309;BME280;75657;42.022;21.356;2024-01-30T05:49:58;100738.25;;;-0.08;68.82
78309;BME280;75657;42.022;21.356;2024-01-30T05:52:23;100741.34;;;-0.05;68.39
78309;BME280;75657;42.022;21.356;2024-01-30T05:54:49;100740.81;;;0.00;68.49
78309;BME280;75657;42.022;21.356;2024-01-30T05:57:14;100742.72;;;0.06;68.68
78309;BME280;75657;42.022;21.356;2024-01-30T05:59:40;100741.91;;;0.06;68.68
78309;BME280;75657;42.022;21.356;2024-01-30T06:02:05;100742.09;;;0.04;68.45
78309;BME280;75657;42.022;21.356;2024-01-30T06:04:31;100740.72;;;0.08;68.11
78309;BME280;75657;42.022;21.356;2024-01-30T06:06:56;100750.56;;;0.06;68.16
78309;BME280;75657;42.022;21.356;2024-01-30T06:09:22;100755.81;;;0.06;68.14
78309;BME280;75657;42.022;21.356;2024-01-30T06:11:47;100755.34;;;0.03;68.90
78309;BME280;75657;42.022;21.356;2024-01-30T06:14:13;100761.28;;;-0.04;68.25
78309;BME280;75657;42.022;21.356;2024-01-30T06:16:38;100757.91;;;-0.12;68.67
78309;BME280;75657;42.022;21.356;2024-01-30T06:19:03;100759.84;;;-0.06;68.42
78309;BME280;75657;42.022;21.356;2024-01-30T06:21:29;100759.78;;;0.02;68.34
78309;BME280;75657;42.022;21.356;2024-01-30T06:23:55;100757.44;;;0.07;68.62
78309;BME280;75657;42.022;21.356;2024-01-30T06:26:21;100756.44;;;0.08;68.40
78309;BME280;75657;42.022;21.356;2024-01-30T06:28:46;100761.31;;;0.11;68.45
78309;BME280;75657;42.022;21.356;2024-01-30T06:31:12;100759.00;;;0.16;68.77
78309;BME280;75657;42.022;21.356;2024-01-30T06:33:37;100768.84;;;0.14;68.41
78309;BME280;75657;42.022;21.356;2024-01-30T06:36:03;100768.66;;;0.16;69.13
78309;BME280;75657;42.022;21.356;2024-01-30T06:38:28;100770.56;;;0.22;68.60
78309;BME280;75657;42.022;21.356;2024-01-30T06:40:54;100767.94;;;0.22;68.43
78309;BME280;75657;42.022;21.356;2024-01-30T06:43:19;100771.63;;;0.28;68.69
78309;BME280;75657;42.022;21.356;2024-01-30T06:45:45;100769.13;;;0.34;68.74
78309;BME280;75657;42.022;21.356;2024-01-30T06:48:11;100770.66;;;0.44;68.27
78309;BME280;75657;42.022;21.356;2024-01-30T06:50:36;100768.06;;;0.59;68.27
78309;BME280;75657;42.022;21.356;2024-01-30T06:53:02;100778.28;;;0.68;68.48
78309;BME280;75657;42.022;21.356;2024-01-30T06:55:27;100775.72;;;0.75;68.61
78309;BME280;75657;42.022;21.356;2024-01-30T06:57:53;100774.75;;;0.76;68.30
78309;BME280;75657;42.022;21.356;2024-01-30T07:00:19;100769.31;;;0.78;68.15
78309;BME280;75657;42.022;21.356;2024-01-30T07:02:45;100777.91;;;0.86;67.61
78309;BME280;75657;42.022;21.356;2024-01-30T07:05:10;100767.78;;;0.98;67.86
78309;BME280;75657;42.022;21.356;2024-01-30T07:07:35;100770.53;;;1.11;67.81
78309;BME280;75657;42.022;21.356;2024-01-30T07:10:01;100772.94;;;1.28;68.12
78309;BME280;75657;42.022;21.356;2024-01-30T07:12:26;100767.81;;;1.41;68.03
78309;BME280;75657;42.022;21.356;2024-01-30T07:14:52;100774.66;;;1.57;67.80
78309;BME280;75657;42.022;21.356;2024-01-30T07:17:17;100777.59;;;1.69;67.29
78309;BME280;75657;42.022;21.356;2024-01-30T07:19:43;100769.03;;;1.82;67.49
78309;BME280;75657;42.022;21.356;2024-01-30T07:22:08;100768.72;;;1.92;67.46
78309;BME280;75657;42.022;21.356;2024-01-30T07:24:34;100762.94;;;2.03;67.14
78309;BME280;75657;42.022;21.356;2024-01-30T07:27:00;100766.88;;;2.14;67.15
78309;BME280;75657;42.022;21.356;2024-01-30T07:29:25;100764.72;;;2.24;66.89
78309;BME280;75657;42.022;21.356;2024-01-30T07:31:51;100762.75;;;2.33;66.26
78309;BME280;75657;42.022;21.356;2024-01-30T07:34:16;100762.03;;;2.45;66.35
78309;BME280;75657;42.022;21.356;2024-01-30T07:36:42;100764.94;;;2.57;65.80
78309;BME280;75657;42.022;21.356;2024-01-30T07:39:07;100768.81;;;2.68;65.65
78309;BME280;75657;42.022;21.356;2024-01-30T07:41:33;100767.88;;;2.82;65.07
78309;BME280;75657;42.022;21.356;2024-01-30T07:43:58;100769.97;;;2.94;64.82
78309;BME280;75657;42.022;21.356;2024-01-30T07:46:23;100762.53;;;3.04;63.97
78309;BME280;75657;42.022;21.356;2024-01-30T07:48:49;100768.19;;;3.14;63.94
78309;BME280;75657;42.022;21.356;2024-01-30T07:51:18;100772.72;;;3.27;63.47
78309;BME280;75657;42.022;21.356;2024-01-30T07:53:43;100770.50;;;3.37;63.95
78309;BME280;75657;42.022;21.356;2024-01-30T07:56:10;100770.13;;;3.47;63.05
78309;BME280;75657;42.022;21.356;2024-01-30T07:58:36;100766.69;;;3.53;62.74
78309;BME280;75657;42.022;21.356;2024-01-30T08:01:02;100764.69;;;3.62;62.36
78309;BME280;75657;42.022;21.356;2024-01-30T08:03:28;100770.56;;;3.71;62.43
78309;BME280;75657;42.022;21.356;2024-01-30T08:05:53;100771.00;;;3.81;61.93
78309;BME280;75657;42.022;21.356;2024-01-30T08:08:19;100767.53;;;3.94;62.07
78309;BME280;75657;42.022;21.356;2024-01-30T08:10:44;100768.56;;;4.06;61.53
78309;BME280;75657;42.022;21.356;2024-01-30T08:13:10;100767.75;;;4.12;60.14
78309;BME280;75657;42.022;21.356;2024-01-30T08:15:35;100758.81;;;4.13;59.53
78309;BME280;75657;42.022;21.356;2024-01-30T08:18:01;100761.44;;;4.20;58.79
78309;BME280;75657;42.022;21.356;2024-01-30T08:20:26;100761.84;;;4.30;59.18
78309;BME280;75657;42.022;21.356;2024-01-30T08:22:52;100763.66;;;4.37;58.46
78309;BME280;75657;42.022;21.356;2024-01-30T08:25:17;100759.78;;;4.46;59.10
78309;BME280;75657;42.022;21.356;2024-01-30T08:27:44;100762.59;;;4.58;58.33
78309;BME280;75657;42.022;21.356;2024-01-30T08:30:10;100768.03;;;4.69;58.31
78309;BME280;75657;42.022;21.356;2024-01-30T08:32:35;100763.34;;;4.78;57.88
78309;BME280;75657;42.022;21.356;2024-01-30T08:35:01;100762.31;;;4.86;57.26
78309;BME280;75657;42.022;21.356;2024-01-30T08:37:30;100764.69;;;4.94;57.21
78309;BME280;75657;42.022;21.356;2024-01-30T08:39:55;100761.63;;;5.04;57.21
78309;BME280;75657;42.022;21.356;2024-01-30T08:42:21;100764.25;;;5.10;56.46
78309;BME280;75657;42.022;21.356;2024-01-30T08:44:51;100765.22;;;5.16;55.86
78309;BME280;75657;42.022;21.356;2024-01-30T08:47:18;100762.38;;;5.18;54.86
78309;BME280;75657;42.022;21.356;2024-01-30T08:49:44;100759.34;;;5.14;55.25
78309;BME280;75657;42.022;21.356;2024-01-30T08:52:10;100763.81;;;5.14;54.58
78309;BME280;75657;42.022;21.356;2024-01-30T08:54:36;100756.06;;;5.19;55.10
78309;BME280;75657;42.022;21.356;2024-01-30T08:57:01;100750.78;;;5.19;54.22
78309;BME280;75657;42.022;21.356;2024-01-30T08:59:27;100756.91;;;5.13;53.58
78309;BME280;75657;42.022;21.356;2024-01-30T09:01:53;100755.66;;;5.22;53.86
78309;BME280;75657;42.022;21.356;2024-01-30T09:04:21;100753.00;;;5.22;52.99
78309;BME280;75657;42.022;21.356;2024-01-30T09:06:47;100747.94;;;5.20;53.91
78309;BME280;75657;42.022;21.356;2024-01-30T09:09:12;100750.53;;;5.27;53.36
78309;BME280;75657;42.022;21.356;2024-01-30T09:11:38;100743.22;;;5.29;53.66
78309;BME280;75657;42.022;21.356;2024-01-30T09:14:03;100743.75;;;5.38;53.44
78309;BME280;75657;42.022;21.356;2024-01-30T09:16:29;100740.63;;;5.54;53.28
78309;BME280;75657;42.022;21.356;2024-01-30T09:18:54;100747.06;;;5.65;53.48
78309;BME280;75657;42.022;21.356;2024-01-30T09:21:20;100733.78;;;5.72;52.78
78309;BME280;75657;42.022;21.356;2024-01-30T09:23:45;100735.72;;;5.83;52.93
78309;BME280;75657;42.022;21.356;2024-01-30T09:26:11;100735.25;;;5.93;52.83
78309;BME280;75657;42.022;21.356;2024-01-30T09:28:38;100731.75;;;5.99;52.54
78309;BME280;75657;42.022;21.356;2024-01-30T09:31:03;100738.53;;;5.88;50.34
78309;BME280;75657;42.022;21.356;2024-01-30T09:33:29;100722.66;;;5.88;51.41
78309;BME280;75657;42.022;21.356;2024-01-30T09:35:54;100717.34;;;5.95;51.14
78309;BME280;75657;42.022;21.356;2024-01-30T09:38:20;100718.34;;;5.94;50.90
78309;BME280;75657;42.022;21.356;2024-01-30T09:40:50;100714.22;;;6.04;51.56
78309;BME280;75657;42.022;21.356;2024-01-30T09:43:21;100712.25;;;6.18;51.57
78309;BME280;75657;42.022;21.356;2024-01-30T09:45:48;100708.75;;;6.24;50.80
78309;BME280;75657;42.022;21.356;2024-01-30T09:48:15;100704.19;;;6.32;50.27
78309;BME280;75657;42.022;21.356;2024-01-30T09:50:41;100701.47;;;6.38;50.41
78309;BME280;75657;42.022;21.356;2024-01-30T09:53:08;100699.56;;;6.46;50.56
78309;BME280;75657;42.022;21.356;2024-01-30T09:55:35;100696.84;;;6.52;50.08
78309;BME280;75657;42.022;21.356;2024-01-30T09:58:01;100692.06;;;6.61;50.30
78309;BME280;75657;42.022;21.356;2024-01-30T10:00:26;100693.06;;;6.60;49.85
78309;BME280;75657;42.022;21.356;2024-01-30T10:02:53;100695.00;;;6.71;50.16
78309;BME280;75657;42.022;21.356;2024-01-30T10:05:19;100691.44;;;6.77;49.77
78309;BME280;75657;42.022;21.356;2024-01-30T10:07:55;100683.41;;;6.84;49.72
78309;BME280;75657;42.022;21.356;2024-01-30T10:10:22;100682.84;;;6.82;48.18
78309;BME280;75657;42.022;21.356;2024-01-30T10:12:49;100677.69;;;6.69;47.61
78309;BME280;75657;42.022;21.356;2024-01-30T10:15:14;100672.31;;;6.75;48.45
78309;BME280;75657;42.022;21.356;2024-01-30T10:17:40;100671.75;;;6.55;47.37
78309;BME280;75657;42.022;21.356;2024-01-30T10:20:05;100666.53;;;6.48;48.26
78309;BME280;75657;42.022;21.356;2024-01-30T10:22:32;100664.66;;;6.55;47.93
78309;BME280;75657;42.022;21.356;2024-01-30T10:24:57;100657.28;;;6.39;47.16
78309;BME280;75657;42.022;21.356;2024-01-30T10:27:25;100659.72;;;6.40;47.52
78309;BME280;75657;42.022;21.356;2024-01-30T10:29:52;100657.44;;;6.44;47.42
78309;BME280;75657;42.022;21.356;2024-01-30T10:32:17;100653.63;;;6.40;47.07
78309;BME280;75657;42.022;21.356;2024-01-30T10:34:43;100653.31;;;6.48;47.00
78309;BME280;75657;42.022;21.356;2024-01-30T10:37:10;100645.22;;;6.61;47.94
78309;BME280;75657;42.022;21.356;2024-01-30T10:39:46;100633.53;;;6.69;46.71
78309;BME280;75657;42.022;21.356;2024-01-30T10:42:17;100631.03;;;6.86;47.25
78309;BME280;75657;42.022;21.356;2024-01-30T10:47:29;100618.56;;;7.17;47.30
78309;BME280;75657;42.022;21.356;2024-01-30T10:49:56;100613.53;;;7.27;46.90
78309;BME280;75657;42.022;21.356;2024-01-30T10:52:25;100613.78;;;7.37;46.85
78309;BME280;75657;42.022;21.356;2024-01-30T10:54:51;100612.72;;;7.38;45.20
78309;BME280;75657;42.022;21.356;2024-01-30T10:57:18;100609.69;;;7.23;44.60
78309;BME280;75657;42.022;21.356;2024-01-30T10:59:43;100604.41;;;7.11;45.20
78309;BME280;75657;42.022;21.356;2024-01-30T11:02:11;100600.84;;;7.17;44.75
78309;BME280;75657;42.022;21.356;2024-01-30T11:04:43;100596.59;;;7.16;44.46
78309;BME280;75657;42.022;21.356;2024-01-30T11:07:15;100584.50;;;7.32;45.69
78309;BME280;75657;42.022;21.356;2024-01-30T11:09:49;100586.78;;;7.41;44.41
78309;BME280;75657;42.022;21.356;2024-01-30T11:12:14;100581.28;;;7.54;45.35
78309;BME280;75657;42.022;21.356;2024-01-30T11:14:40;100582.75;;;7.62;44.96
78309;BME280;75657;42.022;21.356;2024-01-30T11:17:05;100581.63;;;7.46;44.30
78309;BME280;75657;42.022;21.356;2024-01-30T11:19:33;100573.66;;;7.57;44.20
78309;BME280;75657;42.022;21.356;2024-01-30T11:21:59;100573.44;;;7.71;44.83
78309;BME280;75657;42.022;21.356;2024-01-30T11:24:25;100577.78;;;7.77;44.75
78309;BME280;75657;42.022;21.356;2024-01-30T11:26:58;100572.03;;;7.80;44.17
78309;BME280;75657;42.022;21.356;2024-01-30T11:29:27;100554.94;;;7.88;44.40
78309;BME280;75657;42.022;21.356;2024-01-30T11:31:57;100550.03;;;7.80;43.53
78309;BME280;75657;42.022;21.356;2024-01-30T11:34:24;100543.44;;;7.82;43.37
78309;BME280;75657;42.022;21.356;2024-01-30T11:37:01;100544.22;;;7.83;41.93
78309;BME280;75657;42.022;21.356;2024-01-30T11:39:31;100535.69;;;7.92;43.68
78309;BME280;75657;42.022;21.356;2024-01-30T11:41:57;100532.22;;;8.04;43.95
78309;BME280;75657;42.022;21.356;2024-01-30T11:44:23;100533.69;;;8.11;43.56
78309;BME280;75657;42.022;21.356;2024-01-30T11:46:50;100532.72;;;8.18;42.70
78309;BME280;75657;42.022;21.356;2024-01-30T11:49:16;100526.75;;;8.10;41.88
78309;BME280;75657;42.022;21.356;2024-01-30T11:51:42;100534.09;;;8.20;43.13
78309;BME280;75657;42.022;21.356;2024-01-30T11:54:08;100520.59;;;8.22;42.25
78309;BME280;75657;42.022;21.356;2024-01-30T11:56:34;100524.31;;;8.09;41.31
78309;BME280;75657;42.022;21.356;2024-01-30T11:59:00;100519.91;;;7.86;40.99
78309;BME280;75657;42.022;21.356;2024-01-30T12:01:26;100512.41;;;7.83;40.92
78309;BME280;75657;42.022;21.356;2024-01-30T12:03:52;100518.75;;;7.82;41.68
78309;BME280;75657;42.022;21.356;2024-01-30T12:06:18;100505.28;;;7.83;40.92
78309;BME280;75657;42.022;21.356;2024-01-30T12:08:58;100506.41;;;7.87;41.66
78309;BME280;75657;42.022;21.356;2024-01-30T12:11:25;100504.44;;;7.94;41.87
78309;BME280;75657;42.022;21.356;2024-01-30T12:13:52;100502.44;;;8.02;41.43
78309;BME280;75657;42.022;21.356;2024-01-30T12:16:18;100495.41;;;8.07;41.19
78309;BME280;75657;42.022;21.356;2024-01-30T12:18:43;100486.81;;;8.17;41.32
78309;BME280;75657;42.022;21.356;2024-01-30T12:21:09;100484.63;;;8.14;40.83
78309;BME280;75657;42.022;21.356;2024-01-30T12:23:34;100484.63;;;8.14;41.05
78309;BME280;75657;42.022;21.356;2024-01-30T12:26:01;100486.56;;;8.19;40.74
78309;BME280;75657;42.022;21.356;2024-01-30T12:28:29;100479.50;;;8.24;40.58
78309;BME280;75657;42.022;21.356;2024-01-30T12:30:56;100475.19;;;8.35;41.56
78309;BME280;75657;42.022;21.356;2024-01-30T12:33:26;100474.47;;;8.40;40.11
78309;BME280;75657;42.022;21.356;2024-01-30T12:35:52;100471.31;;;8.26;39.46
78309;BME280;75657;42.022;21.356;2024-01-30T12:38:17;100475.19;;;8.35;39.66
78309;BME280;75657;42.022;21.356;2024-01-30T12:40:43;100474.63;;;8.33;39.83
78309;BME280;75657;42.022;21.356;2024-01-30T12:43:09;100469.03;;;8.18;40.13
78309;BME280;75657;42.022;21.356;2024-01-30T12:45:36;100471.78;;;8.23;39.93
78309;BME280;75657;42.022;21.356;2024-01-30T12:48:01;100469.53;;;8.15;40.03
78309;BME280;75657;42.022;21.356;2024-01-30T12:50:27;100468.81;;;8.19;39.47